createdAt,value
2018-12-13T00:00:17.729Z,79.99
2018-12-13T00:00:58.481Z,79.9
2018-12-13T00:01:39.224Z,79.9
2018-12-13T00:02:20.033Z,79.9
2018-12-13T00:03:00.758Z,80.28
2018-12-13T00:03:41.502Z,80.19
2018-12-13T00:04:22.222Z,80.28
2018-12-13T00:05:03.064Z,79.9
2018-12-13T00:05:43.932Z,80.09
2018-12-13T00:06:24.585Z,79.9
2018-12-13T00:07:05.349Z,80.28
2018-12-13T00:07:46.143Z,80.19
2018-12-13T00:08:26.920Z,80.28
2018-12-13T00:09:07.688Z,80.09
2018-12-13T00:09:48.407Z,80.38
2018-12-13T00:10:29.200Z,80.28
2018-12-13T00:11:09.989Z,80.38
2018-12-13T00:11:50.699Z,80.19
2018-12-13T00:12:31.403Z,80.28
2018-12-13T00:13:12.169Z,80.19
2018-12-13T00:13:52.951Z,80.09
2018-12-13T00:14:33.805Z,80.28
2018-12-13T00:15:14.616Z,80.09
2018-12-13T00:15:55.295Z,80.38
2018-12-13T00:16:36.036Z,80.09
2018-12-13T00:17:16.772Z,80.47
2018-12-13T00:17:57.568Z,80.19
2018-12-13T00:18:38.348Z,80.09
2018-12-13T00:19:19.063Z,80.38
2018-12-13T00:19:59.880Z,80.09
2018-12-13T00:20:40.759Z,80.28
2018-12-13T00:21:21.539Z,79.9
2018-12-13T00:22:02.403Z,79.8
2018-12-13T00:22:43.149Z,79.9
2018-12-13T00:23:23.884Z,79.8
2018-12-13T00:24:04.619Z,79.71
2018-12-13T00:24:45.353Z,79.71
2018-12-13T00:25:26.182Z,79.9
2018-12-13T00:26:07.046Z,79.9
2018-12-13T00:26:47.769Z,80.19
2018-12-13T00:27:28.512Z,79.99
2018-12-13T00:28:09.347Z,79.9
2018-12-13T00:28:50.165Z,79.9
2018-12-13T00:29:30.912Z,79.8
2018-12-13T00:30:11.662Z,80.09
2018-12-13T00:30:52.425Z,79.8
2018-12-13T00:31:33.234Z,79.99
2018-12-13T00:32:13.975Z,80.09
2018-12-13T00:32:54.813Z,80.09
2018-12-13T00:33:35.506Z,79.99
2018-12-13T00:34:16.244Z,79.8
2018-12-13T00:34:56.971Z,80.09
2018-12-13T00:35:37.818Z,80.09
2018-12-13T00:36:18.577Z,79.99
2018-12-13T00:36:59.296Z,79.99
2018-12-13T00:37:40.045Z,79.99
2018-12-13T00:38:20.866Z,79.99
2018-12-13T00:39:01.671Z,79.99
2018-12-13T00:39:42.400Z,79.8
2018-12-13T00:40:23.131Z,79.8
2018-12-13T00:41:03.908Z,80.09
2018-12-13T00:41:44.656Z,79.8
2018-12-13T00:42:25.391Z,80.09
2018-12-13T00:43:06.106Z,79.8
2018-12-13T00:43:46.804Z,79.99
2018-12-13T00:44:27.679Z,79.71
2018-12-13T00:45:08.439Z,79.99
2018-12-13T00:45:49.183Z,80.09
2018-12-13T00:46:29.930Z,80.09
2018-12-13T00:47:10.727Z,79.71
2018-12-13T00:47:51.583Z,79.61
2018-12-13T00:48:32.250Z,79.9
2018-12-13T00:49:13.000Z,79.61
2018-12-13T00:49:53.702Z,79.99
2018-12-13T00:50:34.465Z,80.09
2018-12-13T00:51:15.302Z,79.99
2018-12-13T00:51:56.048Z,80.19
2018-12-13T00:52:36.766Z,79.99
2018-12-13T00:53:17.485Z,79.8
2018-12-13T00:53:58.269Z,79.71
2018-12-13T00:54:39.047Z,79.71
2018-12-13T00:55:19.730Z,79.52
2018-12-13T00:56:00.470Z,79.61
2018-12-13T00:56:41.167Z,79.52
2018-12-13T00:57:21.930Z,79.61
2018-12-13T00:58:02.777Z,79.32
2018-12-13T00:58:43.519Z,79.71
2018-12-13T00:59:24.341Z,79.71
2018-12-13T01:00:05.134Z,79.61
2018-12-13T01:00:45.921Z,79.61
2018-12-13T01:01:26.657Z,79.99
2018-12-13T01:02:07.381Z,79.61
2018-12-13T01:02:48.164Z,79.61
2018-12-13T01:03:28.876Z,79.9
2018-12-13T01:04:09.628Z,79.71
2018-12-13T01:04:50.444Z,79.52
2018-12-13T01:05:31.175Z,79.8
2018-12-13T01:06:12.007Z,79.71
2018-12-13T01:06:52.782Z,79.71
2018-12-13T01:07:33.542Z,79.42
2018-12-13T01:08:14.293Z,79.32
2018-12-13T01:08:55.009Z,79.52
2018-12-13T01:09:35.771Z,79.52
2018-12-13T01:10:16.566Z,79.32
2018-12-13T01:10:57.281Z,79.42
2018-12-13T01:11:38.043Z,79.61
2018-12-13T01:12:18.862Z,79.61
2018-12-13T01:12:59.643Z,79.42
2018-12-13T01:13:40.437Z,79.52
2018-12-13T01:14:21.174Z,79.42
2018-12-13T01:15:01.864Z,79.71
2018-12-13T01:15:42.672Z,79.61
2018-12-13T01:16:23.438Z,79.52
2018-12-13T01:17:04.155Z,79.52
2018-12-13T01:17:44.842Z,79.32
2018-12-13T01:18:25.592Z,79.32
2018-12-13T01:19:06.406Z,79.52
2018-12-13T01:19:47.150Z,79.42
2018-12-13T01:20:27.887Z,79.61
2018-12-13T01:21:08.680Z,79.52
2018-12-13T01:21:49.465Z,79.52
2018-12-13T01:22:30.295Z,79.61
2018-12-13T01:23:11.024Z,79.42
2018-12-13T01:23:51.765Z,79.42
2018-12-13T01:24:32.544Z,79.61
2018-12-13T01:25:13.309Z,79.52
2018-12-13T01:25:54.196Z,79.22
2018-12-13T01:26:34.958Z,79.42
2018-12-13T01:27:15.749Z,79.32
2018-12-13T01:27:56.488Z,79.22
2018-12-13T01:28:37.262Z,79.42
2018-12-13T01:29:18.049Z,79.32
2018-12-13T01:29:58.798Z,79.32
2018-12-13T01:30:39.490Z,79.52
2018-12-13T01:31:20.212Z,79.22
2018-12-13T01:32:01.018Z,79.32
2018-12-13T01:32:41.794Z,79.32
2018-12-13T01:33:22.596Z,79.32
2018-12-13T01:34:03.301Z,79.32
2018-12-13T01:34:43.998Z,79.32
2018-12-13T01:35:24.677Z,79.42
2018-12-13T01:36:05.451Z,79.32
2018-12-13T01:36:52.226Z,79.32
2018-12-13T01:37:26.946Z,79.42
2018-12-13T01:38:07.693Z,79.42
2018-12-13T01:38:48.477Z,79.32
2018-12-13T01:39:29.241Z,79.42
2018-12-13T01:40:10.046Z,79.42
2018-12-13T01:40:50.794Z,79.32
2018-12-13T01:41:31.526Z,79.52
2018-12-13T01:42:12.258Z,79.32
2018-12-13T01:42:53.064Z,79.32
2018-12-13T01:43:33.820Z,79.42
2018-12-13T01:44:14.608Z,79.52
2018-12-13T01:44:55.359Z,79.32
2018-12-13T01:45:36.154Z,79.52
2018-12-13T01:46:16.995Z,79.52
2018-12-13T01:46:57.738Z,79.42
2018-12-13T01:47:38.498Z,79.52
2018-12-13T01:48:19.247Z,79.32
2018-12-13T01:48:59.956Z,79.32
2018-12-13T01:49:40.791Z,79.22
2018-12-13T01:50:21.544Z,79.52
2018-12-13T01:51:02.297Z,79.42
2018-12-13T01:51:43.077Z,79.52
2018-12-13T01:52:23.835Z,79.42
2018-12-13T01:53:04.702Z,79.42
2018-12-13T01:53:45.366Z,79.52
2018-12-13T01:54:26.103Z,79.42
2018-12-13T01:55:06.910Z,79.22
2018-12-13T01:55:47.633Z,79.42
2018-12-13T01:56:28.320Z,79.61
2018-12-13T01:57:09.029Z,79.42
2018-12-13T01:57:49.754Z,79.61
2018-12-13T01:58:30.568Z,79.71
2018-12-13T01:59:11.448Z,79.71
2018-12-13T01:59:52.209Z,79.42
2018-12-13T02:00:32.892Z,79.71
2018-12-13T02:01:13.632Z,79.42
2018-12-13T02:01:54.397Z,79.71
2018-12-13T02:02:35.202Z,79.61
2018-12-13T02:03:15.905Z,79.42
2018-12-13T02:03:56.652Z,79.32
2018-12-13T02:04:37.420Z,79.32
2018-12-13T02:05:18.203Z,79.22
2018-12-13T02:05:59.007Z,79.32
2018-12-13T02:06:39.735Z,79.22
2018-12-13T02:07:20.432Z,79.13
2018-12-13T02:08:01.175Z,79.32
2018-12-13T02:08:41.947Z,79.32
2018-12-13T02:09:22.735Z,79.32
2018-12-13T02:10:03.552Z,79.32
2018-12-13T02:10:44.310Z,79.32
2018-12-13T02:11:25.032Z,79.32
2018-12-13T02:12:05.830Z,79.13
2018-12-13T02:12:46.565Z,79.61
2018-12-13T02:13:27.284Z,79.32
2018-12-13T02:14:08.017Z,79.32
2018-12-13T02:14:48.687Z,79.22
2018-12-13T02:15:29.497Z,79.42
2018-12-13T02:16:10.265Z,79.8
2018-12-13T02:16:51.129Z,79.61
2018-12-13T02:17:31.888Z,79.61
2018-12-13T02:18:12.628Z,78.84
2018-12-13T02:18:53.365Z,78.84
2018-12-13T02:19:34.154Z,78.84
2018-12-13T02:20:14.982Z,78.84
2018-12-13T02:20:55.689Z,78.75
2018-12-13T02:21:36.442Z,79.03
2018-12-13T02:22:17.260Z,78.94
2018-12-13T02:22:58.076Z,79.03
2018-12-13T02:23:38.889Z,79.03
2018-12-13T02:24:19.622Z,79.13
2018-12-13T02:25:00.450Z,79.03
2018-12-13T02:25:41.261Z,79.32
2018-12-13T02:26:21.952Z,79.13
2018-12-13T02:27:02.691Z,79.22
2018-12-13T02:27:43.415Z,78.94
2018-12-13T02:28:24.216Z,79.22
2018-12-13T02:29:05.004Z,79.22
2018-12-13T02:29:45.731Z,79.22
2018-12-13T02:30:26.517Z,78.84
2018-12-13T02:31:07.320Z,79.32
2018-12-13T02:31:48.101Z,79.22
2018-12-13T02:32:28.910Z,79.03
2018-12-13T02:33:09.635Z,79.03
2018-12-13T02:33:50.394Z,79.22
2018-12-13T02:34:31.130Z,79.03
2018-12-13T02:35:11.944Z,79.22
2018-12-13T02:35:52.729Z,79.22
2018-12-13T02:36:33.568Z,79.13
2018-12-13T02:37:14.274Z,79.32
2018-12-13T02:37:54.975Z,78.94
2018-12-13T02:38:35.791Z,79.22
2018-12-13T02:39:16.548Z,79.22
2018-12-13T02:39:57.283Z,79.03
2018-12-13T02:40:38.116Z,79.22
2018-12-13T02:41:18.879Z,79.13
2018-12-13T02:41:59.700Z,78.55
2018-12-13T02:42:40.491Z,79.22
2018-12-13T02:43:21.222Z,79.22
2018-12-13T02:44:02.005Z,79.03
2018-12-13T02:44:42.733Z,79.13
2018-12-13T02:45:23.472Z,79.22
2018-12-13T02:46:04.263Z,79.13
2018-12-13T02:46:44.987Z,79.13
2018-12-13T02:47:25.743Z,79.22
2018-12-13T02:48:06.536Z,79.03
2018-12-13T02:48:47.288Z,78.94
2018-12-13T02:49:28.130Z,79.03
2018-12-13T02:50:08.823Z,79.03
2018-12-13T02:50:49.590Z,79.13
2018-12-13T02:51:30.322Z,78.84
2018-12-13T02:52:11.126Z,78.75
2018-12-13T02:52:51.877Z,78.65
2018-12-13T02:53:32.646Z,78.84
2018-12-13T02:54:13.394Z,78.84
2018-12-13T02:54:54.097Z,78.84
2018-12-13T02:55:34.887Z,78.84
2018-12-13T02:56:15.631Z,78.65
2018-12-13T02:56:56.368Z,78.84
2018-12-13T02:57:37.074Z,78.55
2018-12-13T02:58:17.795Z,78.55
2018-12-13T02:58:58.670Z,79.03
2018-12-13T02:59:39.419Z,78.94
2018-12-13T03:00:20.126Z,79.13
2018-12-13T03:01:00.920Z,78.94
2018-12-13T03:01:41.641Z,78.65
2018-12-13T03:02:22.441Z,78.94
2018-12-13T03:03:03.197Z,78.65
2018-12-13T03:03:43.911Z,78.65
2018-12-13T03:04:24.701Z,78.55
2018-12-13T03:05:05.425Z,78.45
2018-12-13T03:05:46.146Z,78.94
2018-12-13T03:06:26.868Z,78.75
2018-12-13T03:07:13.498Z,78.65
2018-12-13T03:07:48.460Z,78.45
2018-12-13T03:08:29.247Z,78.84
2018-12-13T03:09:10.009Z,78.84
2018-12-13T03:09:50.727Z,78.75
2018-12-13T03:10:31.457Z,78.88
2018-12-13T03:11:12.186Z,78.84
2018-12-13T03:11:53.011Z,79.03
2018-12-13T03:12:33.815Z,78.84
2018-12-13T03:13:14.541Z,78.94
2018-12-13T03:13:55.249Z,78.75
2018-12-13T03:14:35.963Z,78.55
2018-12-13T03:15:16.764Z,78.84
2018-12-13T03:15:57.530Z,78.75
2018-12-13T03:16:38.242Z,78.75
2018-12-13T03:17:19.022Z,78.75
2018-12-13T03:17:59.831Z,78.65
2018-12-13T03:18:40.638Z,78.65
2018-12-13T03:19:21.376Z,78.65
2018-12-13T03:20:02.057Z,78.65
2018-12-13T03:20:42.832Z,78.84
2018-12-13T03:21:23.576Z,79.03
2018-12-13T03:22:04.361Z,79.03
2018-12-13T03:22:45.092Z,78.84
2018-12-13T03:23:25.815Z,78.59
2018-12-13T03:24:06.608Z,78.55
2018-12-13T03:24:47.366Z,78.55
2018-12-13T03:25:28.080Z,78.55
2018-12-13T03:26:08.848Z,78.65
2018-12-13T03:26:49.681Z,78.65
2018-12-13T03:27:30.491Z,78.65
2018-12-13T03:28:11.241Z,78.65
2018-12-13T03:28:51.959Z,78.59
2018-12-13T03:29:32.644Z,78.84
2018-12-13T03:30:13.374Z,78.94
2018-12-13T03:30:54.178Z,78.65
2018-12-13T03:31:34.951Z,78.55
2018-12-13T03:32:15.786Z,78.88
2018-12-13T03:32:56.559Z,79.03
2018-12-13T03:33:37.316Z,78.84
2018-12-13T03:34:18.139Z,78.65
2018-12-13T03:34:58.861Z,78.78
2018-12-13T03:35:39.585Z,78.84
2018-12-13T03:36:20.309Z,78.78
2018-12-13T03:37:01.097Z,78.75
2018-12-13T03:37:41.979Z,78.88
2018-12-13T03:38:22.759Z,78.88
2018-12-13T03:39:03.538Z,78.88
2018-12-13T03:39:44.314Z,78.75
2018-12-13T03:40:25.030Z,78.75
2018-12-13T03:41:05.760Z,78.69
2018-12-13T03:41:46.687Z,79.07
2018-12-13T03:42:27.361Z,79.03
2018-12-13T03:43:08.117Z,78.78
2018-12-13T03:43:48.916Z,78.75
2018-12-13T03:44:29.702Z,78.69
2018-12-13T03:45:10.494Z,78.65
2018-12-13T03:45:51.199Z,79.22
2018-12-13T03:46:31.900Z,79.17
2018-12-13T03:47:12.706Z,78.69
2018-12-13T03:47:53.486Z,78.98
2018-12-13T03:48:34.249Z,78.98
2018-12-13T03:49:15.086Z,78.69
2018-12-13T03:49:55.849Z,78.88
2018-12-13T03:50:36.592Z,78.78
2018-12-13T03:51:17.395Z,78.88
2018-12-13T03:51:58.165Z,78.69
2018-12-13T03:52:38.985Z,78.69
2018-12-13T03:53:19.604Z,78.65
2018-12-13T03:54:00.333Z,78.78
2018-12-13T03:54:41.165Z,78.98
2018-12-13T03:55:21.909Z,79.17
2018-12-13T03:56:02.658Z,79.17
2018-12-13T03:56:43.467Z,78.78
2018-12-13T03:57:24.224Z,79.27
2018-12-13T03:58:05.040Z,78.69
2018-12-13T03:58:45.711Z,78.59
2018-12-13T03:59:26.472Z,78.88
2018-12-13T04:00:07.302Z,78.69
2018-12-13T04:00:48.026Z,78.69
2018-12-13T04:01:28.736Z,78.69
2018-12-13T04:02:09.454Z,78.98
2018-12-13T04:02:50.219Z,78.94
2018-12-13T04:03:31.006Z,79.17
2018-12-13T04:04:11.864Z,78.84
2018-12-13T04:04:52.602Z,79.07
2018-12-13T04:05:33.337Z,78.98
2018-12-13T04:06:14.080Z,78.98
2018-12-13T04:06:54.850Z,78.69
2018-12-13T04:07:35.653Z,78.98
2018-12-13T04:08:16.387Z,79.27
2018-12-13T04:08:57.096Z,78.78
2018-12-13T04:09:37.971Z,79.27
2018-12-13T04:10:18.724Z,78.88
2018-12-13T04:10:59.506Z,78.78
2018-12-13T04:11:40.302Z,78.88
2018-12-13T04:12:20.976Z,79.17
2018-12-13T04:13:01.734Z,78.78
2018-12-13T04:13:42.472Z,78.5
2018-12-13T04:14:23.275Z,78.78
2018-12-13T04:15:04.052Z,78.78
2018-12-13T04:15:44.827Z,78.88
2018-12-13T04:16:25.580Z,78.88
2018-12-13T04:17:06.378Z,79.27
2018-12-13T04:17:47.189Z,78.78
2018-12-13T04:18:27.945Z,78.88
2018-12-13T04:19:08.613Z,78.88
2018-12-13T04:19:49.348Z,78.78
2018-12-13T04:20:30.195Z,78.21
2018-12-13T04:21:10.976Z,78.69
2018-12-13T04:21:51.785Z,78.98
2018-12-13T04:22:32.530Z,78.4
2018-12-13T04:23:13.340Z,78.3
2018-12-13T04:23:54.072Z,78.3
2018-12-13T04:24:34.798Z,79.07
2018-12-13T04:25:15.597Z,78.78
2018-12-13T04:25:56.295Z,78.69
2018-12-13T04:26:37.010Z,78.88
2018-12-13T04:27:17.789Z,78.69
2018-12-13T04:27:58.646Z,79.07
2018-12-13T04:28:39.475Z,78.88
2018-12-13T04:29:20.150Z,78.5
2018-12-13T04:30:00.935Z,78.69
2018-12-13T04:30:41.789Z,78.02
2018-12-13T04:31:22.474Z,79.07
2018-12-13T04:32:03.283Z,78.69
2018-12-13T04:32:44.029Z,78.98
2018-12-13T04:33:24.785Z,78.98
2018-12-13T04:34:05.542Z,78.88
2018-12-13T04:34:46.241Z,78.98
2018-12-13T04:35:26.971Z,78.5
2018-12-13T04:36:07.801Z,78.88
2018-12-13T04:36:48.628Z,78.5
2018-12-13T04:37:35.214Z,78.88
2018-12-13T04:38:10.152Z,78.78
2018-12-13T04:38:50.882Z,78.78
2018-12-13T04:39:31.575Z,78.98
2018-12-13T04:40:12.360Z,78.69
2018-12-13T04:40:53.149Z,78.88
2018-12-13T04:41:33.951Z,78.78
2018-12-13T04:42:14.645Z,78.88
2018-12-13T04:42:55.343Z,78.78
2018-12-13T04:43:36.135Z,78.88
2018-12-13T04:44:16.912Z,78.88
2018-12-13T04:44:57.682Z,78.88
2018-12-13T04:45:38.373Z,78.59
2018-12-13T04:46:19.139Z,78.5
2018-12-13T04:47:00.006Z,78.59
2018-12-13T04:47:41.030Z,78.5
2018-12-13T04:48:21.800Z,78.5
2018-12-13T04:49:02.567Z,78.69
2018-12-13T04:49:43.658Z,78.59
2018-12-13T04:50:24.501Z,78.4
2018-12-13T04:51:05.252Z,78.69
2018-12-13T04:51:46.338Z,78.5
2018-12-13T04:52:27.128Z,78.69
2018-12-13T04:53:08.081Z,78.4
2018-12-13T04:53:48.913Z,78.69
2018-12-13T04:54:29.684Z,78.59
2018-12-13T04:55:10.521Z,78.59
2018-12-13T04:55:51.431Z,78.59
2018-12-13T04:56:32.307Z,78.5
2018-12-13T04:57:13.085Z,78.4
2018-12-13T04:57:53.893Z,78.69
2018-12-13T04:58:34.727Z,78.59
2018-12-13T04:59:15.503Z,78.5
2018-12-13T04:59:56.354Z,78.69
2018-12-13T05:00:37.096Z,78.5
2018-12-13T05:01:17.827Z,78.02
2018-12-13T05:01:58.643Z,78.78
2018-12-13T05:02:39.471Z,78.69
2018-12-13T05:03:20.228Z,78.5
2018-12-13T05:04:00.942Z,78.69
2018-12-13T05:04:41.680Z,78.5
2018-12-13T05:05:22.476Z,78.78
2018-12-13T05:06:03.188Z,78.59
2018-12-13T05:06:43.925Z,78.5
2018-12-13T05:07:24.613Z,78.4
2018-12-13T05:08:05.437Z,78.4
2018-12-13T05:08:46.191Z,78.5
2018-12-13T05:09:26.896Z,78.5
2018-12-13T05:10:07.653Z,78.5
2018-12-13T05:10:48.440Z,78.59
2018-12-13T05:11:29.252Z,78.59
2018-12-13T05:12:10.043Z,78.98
2018-12-13T05:12:50.746Z,78.78
2018-12-13T05:13:31.450Z,78.69
2018-12-13T05:14:12.193Z,78.98
2018-12-13T05:14:52.964Z,78.4
2018-12-13T05:15:33.754Z,78.5
2018-12-13T05:16:14.516Z,78.5
2018-12-13T05:16:55.277Z,78.69
2018-12-13T05:17:36.000Z,78.69
2018-12-13T05:18:16.808Z,78.88
2018-12-13T05:18:57.543Z,78.69
2018-12-13T05:19:38.301Z,78.69
2018-12-13T05:20:19.042Z,78.69
2018-12-13T05:20:59.808Z,78.98
2018-12-13T05:21:40.620Z,78.88
2018-12-13T05:22:21.427Z,78.69
2018-12-13T05:23:02.161Z,78.88
2018-12-13T05:23:42.877Z,78.21
2018-12-13T05:24:23.561Z,78.98
2018-12-13T05:25:04.267Z,78.78
2018-12-13T05:25:45.095Z,78.98
2018-12-13T05:26:25.849Z,78.98
2018-12-13T05:27:06.547Z,78.69
2018-12-13T05:27:47.349Z,78.69
2018-12-13T05:28:28.166Z,78.78
2018-12-13T05:29:08.953Z,78.78
2018-12-13T05:29:49.680Z,78.3
2018-12-13T05:30:30.422Z,78.69
2018-12-13T05:31:11.135Z,78.88
2018-12-13T05:31:51.926Z,78.59
2018-12-13T05:32:32.708Z,78.21
2018-12-13T05:33:13.510Z,78.69
2018-12-13T05:33:54.270Z,78.59
2018-12-13T05:34:34.976Z,78.88
2018-12-13T05:35:15.769Z,78.5
2018-12-13T05:35:56.549Z,78.5
2018-12-13T05:36:37.265Z,78.59
2018-12-13T05:37:17.989Z,78.3
2018-12-13T05:37:58.709Z,78.3
2018-12-13T05:38:39.472Z,78.5
2018-12-13T05:39:20.254Z,78.11
2018-12-13T05:40:00.984Z,78.88
2018-12-13T05:40:41.786Z,78.21
2018-12-13T05:41:22.523Z,78.69
2018-12-13T05:42:03.308Z,78.69
2018-12-13T05:42:44.052Z,78.69
2018-12-13T05:43:25.886Z,78.59
2018-12-13T05:44:05.686Z,78.02
2018-12-13T05:44:46.472Z,78.4
2018-12-13T05:45:27.263Z,78.3
2018-12-13T05:46:07.983Z,78.4
2018-12-13T05:46:48.727Z,78.3
2018-12-13T05:47:29.496Z,78.21
2018-12-13T05:48:10.326Z,78.3
2018-12-13T05:48:51.127Z,78.21
2018-12-13T05:49:31.836Z,78.21
2018-12-13T05:50:12.553Z,78.3
2018-12-13T05:50:53.262Z,78.02
2018-12-13T05:51:34.021Z,78.21
2018-12-13T05:52:15.190Z,78.3
2018-12-13T05:52:55.970Z,78.11
2018-12-13T05:53:37.013Z,78.78
2018-12-13T05:54:17.936Z,78.11
2018-12-13T05:54:58.780Z,78.21
2018-12-13T05:55:39.537Z,78.02
2018-12-13T05:56:20.265Z,78.02
2018-12-13T05:57:00.989Z,78.3
2018-12-13T05:57:41.732Z,78.11
2018-12-13T05:58:22.498Z,78.21
2018-12-13T05:59:03.316Z,78.21
2018-12-13T05:59:44.129Z,78.11
2018-12-13T06:00:24.963Z,78.21
2018-12-13T06:01:05.706Z,78.11
2018-12-13T06:01:46.538Z,78.21
2018-12-13T06:02:27.312Z,78.3
2018-12-13T06:03:08.027Z,78.78
2018-12-13T06:03:48.727Z,78.21
2018-12-13T06:04:29.467Z,78.3
2018-12-13T06:05:10.273Z,78.11
2018-12-13T06:05:51.079Z,78.21
2018-12-13T06:06:31.874Z,78.21
2018-12-13T06:07:12.582Z,78.21
2018-12-13T06:07:54.976Z,78.11
2018-12-13T06:08:34.071Z,78.3
2018-12-13T06:09:14.801Z,78.21
2018-12-13T06:09:55.633Z,78.11
2018-12-13T06:10:36.342Z,78.21
2018-12-13T06:11:17.121Z,78.11
2018-12-13T06:11:58.749Z,78.21
2018-12-13T06:12:38.769Z,78.21
2018-12-13T06:13:19.537Z,78.02
2018-12-13T06:14:00.245Z,78.11
2018-12-13T06:14:41.038Z,78.3
2018-12-13T06:15:21.811Z,78.3
2018-12-13T06:16:02.536Z,78.11
2018-12-13T06:16:43.267Z,78.21
2018-12-13T06:17:23.958Z,78.11
2018-12-13T06:18:06.868Z,78.3
2018-12-13T06:18:45.544Z,78.11
2018-12-13T06:19:26.772Z,78.02
2018-12-13T06:20:07.067Z,78.02
2018-12-13T06:20:47.854Z,78.21
2018-12-13T06:21:28.699Z,78.11
2018-12-13T06:22:09.455Z,78.21
2018-12-13T06:22:50.358Z,78.21
2018-12-13T06:23:31.110Z,78.21
2018-12-13T06:24:11.894Z,78.02
2018-12-13T06:24:52.723Z,78.11
2018-12-13T06:25:33.560Z,78.21
2018-12-13T06:26:14.323Z,78.21
2018-12-13T06:26:55.073Z,78.21
2018-12-13T06:27:35.837Z,78.21
2018-12-13T06:28:16.649Z,78.21
2018-12-13T06:28:57.351Z,78.21
2018-12-13T06:29:41.755Z,78.21
2018-12-13T06:30:18.788Z,78.3
2018-12-13T06:30:59.603Z,78.59
2018-12-13T06:31:40.402Z,78.59
2018-12-13T06:32:21.221Z,79.36
2018-12-13T06:33:01.919Z,80.32
2018-12-13T06:33:42.683Z,79.88
2018-12-13T06:34:23.397Z,79.88
2018-12-13T06:35:04.118Z,80.07
2018-12-13T06:35:44.895Z,79.55
2018-12-13T06:36:25.613Z,79.55
2018-12-13T06:37:06.359Z,79.55
2018-12-13T06:37:47.191Z,79.88
2018-12-13T06:38:27.938Z,79.46
2018-12-13T06:39:08.821Z,79.75
2018-12-13T06:39:49.566Z,79.79
2018-12-13T06:40:30.362Z,80.04
2018-12-13T06:41:10.998Z,80.32
2018-12-13T06:41:51.768Z,80.04
2018-12-13T06:42:32.586Z,79.5
2018-12-13T06:43:13.405Z,80.17
2018-12-13T06:43:54.131Z,80.07
2018-12-13T06:44:34.875Z,80.13
2018-12-13T06:45:15.671Z,79.84
2018-12-13T06:45:56.423Z,79.94
2018-12-13T06:46:37.137Z,80.04
2018-12-13T06:47:17.886Z,79.84
2018-12-13T06:47:58.626Z,79.94
2018-12-13T06:48:39.448Z,80.36
2018-12-13T06:49:20.247Z,80.13
2018-12-13T06:50:01.017Z,80.07
2018-12-13T06:50:41.814Z,80.07
2018-12-13T06:51:22.578Z,79.98
2018-12-13T06:52:03.417Z,80.36
2018-12-13T06:52:44.139Z,79.75
2018-12-13T06:53:24.879Z,79.94
2018-12-13T06:54:05.746Z,80.27
2018-12-13T06:54:46.433Z,79.94
2018-12-13T06:55:27.158Z,80.22
2018-12-13T06:56:07.884Z,80.46
2018-12-13T06:56:48.610Z,80.32
2018-12-13T06:57:29.450Z,80.27
2018-12-13T06:58:10.212Z,80.22
2018-12-13T06:58:50.988Z,80.27
2018-12-13T06:59:31.680Z,80.07
2018-12-13T07:00:12.409Z,80.13
2018-12-13T07:00:53.060Z,80.22
2018-12-13T07:01:33.879Z,79.94
2018-12-13T07:02:14.612Z,80.07
2018-12-13T07:02:55.325Z,80.75
2018-12-13T07:03:36.072Z,80.61
2018-12-13T07:04:16.897Z,80.65
2018-12-13T07:04:57.718Z,80.75
2018-12-13T07:05:38.446Z,80.42
2018-12-13T07:06:19.206Z,80.8
2018-12-13T07:06:59.968Z,80.71
2018-12-13T07:07:40.790Z,80.36
2018-12-13T07:08:21.499Z,80.84
2018-12-13T07:09:02.241Z,81.32
2018-12-13T07:09:43.014Z,81.23
2018-12-13T07:10:23.771Z,81.42
2018-12-13T07:11:04.533Z,81.61
2018-12-13T07:11:45.269Z,81.13
2018-12-13T07:12:26.048Z,81.04
2018-12-13T07:13:06.839Z,80.75
2018-12-13T07:13:47.616Z,81.13
2018-12-13T07:14:28.337Z,81.32
2018-12-13T07:15:09.097Z,82.15
2018-12-13T07:15:49.834Z,81.9
2018-12-13T07:16:30.573Z,82.19
2018-12-13T07:17:11.372Z,81.67
2018-12-13T07:17:52.163Z,81.99
2018-12-13T07:18:32.965Z,82.19
2018-12-13T07:19:13.687Z,82.73
2018-12-13T07:19:54.465Z,82.82
2018-12-13T07:20:35.267Z,82.73
2018-12-13T07:21:16.020Z,82.73
2018-12-13T07:21:56.719Z,82.92
2018-12-13T07:22:37.482Z,82.82
2018-12-13T07:23:18.301Z,82.63
2018-12-13T07:23:59.072Z,82.34
2018-12-13T07:24:39.794Z,82.34
2018-12-13T07:25:20.600Z,82.63
2018-12-13T07:26:01.459Z,82.57
2018-12-13T07:26:42.211Z,82.63
2018-12-13T07:27:22.989Z,82.73
2018-12-13T07:28:03.703Z,82.43
2018-12-13T07:28:44.477Z,82.92
2018-12-13T07:29:25.261Z,82.34
2018-12-13T07:30:05.940Z,82.73
2018-12-13T07:30:46.644Z,82.73
2018-12-13T07:31:27.379Z,81.86
2018-12-13T07:32:08.195Z,82.63
2018-12-13T07:32:49.039Z,82.92
2018-12-13T07:33:29.878Z,82.53
2018-12-13T07:34:10.558Z,82.63
2018-12-13T07:34:51.261Z,83.11
2018-12-13T07:35:32.009Z,83.3
2018-12-13T07:36:12.716Z,82.92
2018-12-13T07:36:53.476Z,82.73
2018-12-13T07:37:34.205Z,82.53
2018-12-13T07:38:14.957Z,83.11
2018-12-13T07:38:55.782Z,83.78
2018-12-13T07:39:36.705Z,83.01
2018-12-13T07:40:17.527Z,83.11
2018-12-13T07:40:58.213Z,83.4
2018-12-13T07:41:38.947Z,83.01
2018-12-13T07:42:19.659Z,82.92
2018-12-13T07:43:00.420Z,82.53
2018-12-13T07:43:41.245Z,82.73
2018-12-13T07:44:22.054Z,82.82
2018-12-13T07:45:02.742Z,82.63
2018-12-13T07:45:43.468Z,82.82
2018-12-13T07:46:24.304Z,82.63
2018-12-13T07:47:05.063Z,82.43
2018-12-13T07:47:45.799Z,82.05
2018-12-13T07:48:26.497Z,82.34
2018-12-13T07:49:07.252Z,82.15
2018-12-13T07:49:48.024Z,82.53
2018-12-13T07:50:28.756Z,82.73
2018-12-13T07:51:09.583Z,82.73
2018-12-13T07:51:50.274Z,82.53
2018-12-13T07:52:30.961Z,83.2
2018-12-13T07:53:11.685Z,82.63
2018-12-13T07:53:52.440Z,83.11
2018-12-13T07:54:33.212Z,82.82
2018-12-13T07:55:14.015Z,82.82
2018-12-13T07:55:54.811Z,82.53
2018-12-13T07:56:35.574Z,82.82
2018-12-13T07:57:16.380Z,82.63
2018-12-13T07:57:57.146Z,82.63
2018-12-13T07:58:37.871Z,82.43
2018-12-13T07:59:18.655Z,82.63
2018-12-13T07:59:59.456Z,82.24
2018-12-13T08:00:40.161Z,82.82
2018-12-13T08:01:20.898Z,82.73
2018-12-13T08:02:01.677Z,82.82
2018-12-13T08:02:42.502Z,82.63
2018-12-13T08:03:23.200Z,82.63
2018-12-13T08:04:03.924Z,82.53
2018-12-13T08:04:44.687Z,82.63
2018-12-13T08:05:25.476Z,82.73
2018-12-13T08:06:06.301Z,82.82
2018-12-13T08:06:47.011Z,82.34
2018-12-13T08:07:27.715Z,82.34
2018-12-13T08:08:08.438Z,82.15
2018-12-13T08:08:49.167Z,81.96
2018-12-13T08:09:29.988Z,82.15
2018-12-13T08:10:10.808Z,81.86
2018-12-13T08:10:51.569Z,81.48
2018-12-13T08:11:32.289Z,81.67
2018-12-13T08:12:13.045Z,81.67
2018-12-13T08:12:53.854Z,81.96
2018-12-13T08:13:34.593Z,82.15
2018-12-13T08:14:15.279Z,81.86
2018-12-13T08:14:56.067Z,82.43
2018-12-13T08:15:36.839Z,82.34
2018-12-13T08:16:17.690Z,81.76
2018-12-13T08:16:58.508Z,81.67
2018-12-13T08:17:39.222Z,81.48
2018-12-13T08:18:19.924Z,81.67
2018-12-13T08:19:00.644Z,81.86
2018-12-13T08:19:41.427Z,81.86
2018-12-13T08:20:22.248Z,81.76
2018-12-13T08:21:02.897Z,81.86
2018-12-13T08:21:43.671Z,81.76
2018-12-13T08:22:24.452Z,81.86
2018-12-13T08:23:05.295Z,81.76
2018-12-13T08:23:46.023Z,82.24
2018-12-13T08:24:26.728Z,81.76
2018-12-13T08:25:07.442Z,81.76
2018-12-13T08:25:48.257Z,82.24
2018-12-13T08:26:29.087Z,82.15
2018-12-13T08:27:09.884Z,82.05
2018-12-13T08:27:50.662Z,82.05
2018-12-13T08:28:31.432Z,82.15
2018-12-13T08:29:12.254Z,81.57
2018-12-13T08:29:53.017Z,81.86
2018-12-13T08:30:33.786Z,81.48
2018-12-13T08:31:14.482Z,81.67
2018-12-13T08:31:55.217Z,81.09
2018-12-13T08:32:36.007Z,81.09
2018-12-13T08:33:16.795Z,81.28
2018-12-13T08:33:57.563Z,81.48
2018-12-13T08:34:38.324Z,81.28
2018-12-13T08:35:19.106Z,81.09
2018-12-13T08:35:59.939Z,81.09
2018-12-13T08:36:40.722Z,81.67
2018-12-13T08:37:21.470Z,81.09
2018-12-13T08:38:02.289Z,80.9
2018-12-13T08:38:43.055Z,81.28
2018-12-13T08:39:23.750Z,81.38
2018-12-13T08:40:04.498Z,81.48
2018-12-13T08:40:45.222Z,81.28
2018-12-13T08:41:26.086Z,81.28
2018-12-13T08:42:06.930Z,80.9
2018-12-13T08:42:47.734Z,80.99
2018-12-13T08:43:28.464Z,80.9
2018-12-13T08:44:09.134Z,81.19
2018-12-13T08:44:49.882Z,81.19
2018-12-13T08:45:30.662Z,80.99
2018-12-13T08:46:11.456Z,81.28
2018-12-13T08:46:52.160Z,81.48